17 août 2022

Temps Code Temps Temp. Vue Base cloud Vent METAR/SPECI
05:30
V
17 °C 10 km+ - 060° 060° 3 kt METAR LFOE 170330Z AUTO 06003KT 9999 //////CB 17/15 Q1009 TEMPO 2000 BR BKN003
05:00
V
17 °C 10 km+ - Var Var 3 kt METAR LFOE 170300Z AUTO VRB03KT 9999 ///CB 17/15 Q1009 TEMPO 2000 BR BKN003
04:30
V
18 °C 10 km+ 13.000 ft 300° 300° 5 kt METAR LFOE 170230Z AUTO 30005KT 270V330 9999 VCTS FEW048/// BKN130/// OVC150/// ///CB 18/15 Q1009 TEMPO 2000 BR BKN003
04:00
V
18 °C 10 km+ 4.700 ft 240° 240° 4 kt METAR LFOE 170200Z AUTO 24004KT 190V270 9999 VCTS BKN047/// BKN056/// OVC066/// //////CB 18/16 Q1009 TEMPO 2000 BR BKN003
03:30
V
18 °C 10 km+ 4.700 ft Var Var 1 kt METAR LFOE 170130Z AUTO VRB01KT 9999 VCTS BKN047/// BKN058/// //////CB 18/16 Q1009 TEMPO 2000 BR BKN003
03:00
V
18 °C 10 km+ - 110° 110° 4 kt METAR LFOE 170100Z AUTO 11004KT 9999 //////CB 18/16 Q1009 BECMG NSC
02:30
V
18 °C 10 km+ - 080° 080° 2 kt METAR LFOE 170030Z AUTO 08002KT CAVOK 18/16 Q1009 NOSIG
02:00
V
18 °C 10 km+ - 070° 070° 4 kt METAR LFOE 170000Z AUTO 07004KT CAVOK 18/16 Q1009 TEMPO 4000 -SHRA BKN040CB
01:30
V
18 °C 10 km+ - 050° 050° 2 kt METAR LFOE 162330Z AUTO 05002KT CAVOK 18/16 Q1009 TEMPO 4000 -SHRA BKN040CB
01:00
V
18 °C 10 km+ - 180° 180° 4 kt METAR LFOE 162300Z AUTO 18004KT 9999 ///CB 18/16 Q1010 TEMPO 4000 -SHRA
00:30
V
19 °C 10 km+ - 160° 160° 4 kt METAR LFOE 162230Z AUTO 16004KT 9999 //////CB 19/17 Q1010 BECMG NSC
00:00
V
19 °C 10 km+ - 120° 120° 6 kt METAR LFOE 162200Z AUTO 12006KT CAVOK 19/16 Q1010 NOSIG

16 août 2022

Temps Code Temps Temp. Vue Base cloud Vent METAR/SPECI
23:30
V
20 °C 10 km+ - 120° 120° 5 kt METAR LFOE 162130Z AUTO 12005KT 080V150 CAVOK 20/16 Q1009 NOSIG
23:00
V
20 °C 10 km+ - 150° 150° 6 kt METAR LFOE 162100Z AUTO 15006KT CAVOK 20/16 Q1009 NOSIG
22:30
V
20 °C 10 km+ - 130° 130° 4 kt METAR LFOE 162030Z AUTO 13004KT CAVOK 20/16 Q1009 NOSIG
22:00
V
19 °C 10 km+ - Var 000° 0 kt METAR LFOE 162000Z AUTO 00000KT CAVOK 19/15 Q1009 NOSIG
21:30
V
20 °C 10 km+ - 210° 210° 4 kt METAR LFOE 161930Z AUTO 21004KT CAVOK 20/15 Q1009 NOSIG
21:00
V
21 °C 10 km+ - 200° 200° 5 kt METAR LFOE 161900Z AUTO 20005KT CAVOK 21/16 Q1009 TEMPO 4000 SHRA BKN040CB
20:30
V
22 °C 10 km+ - 200° 200° 4 kt METAR LFOE 161830Z AUTO 20004KT CAVOK 22/16 Q1008 TEMPO 4000 SHRA BKN040CB
20:00
V
23 °C 10 km+ - 190° 190° 4 kt METAR LFOE 161800Z AUTO 19004KT CAVOK 23/16 Q1008 TEMPO VRB20G30KT 4000 SHRA BKN040CB
19:30
V
23 °C 10 km+ - 140° 140° 3 kt METAR LFOE 161730Z AUTO 14003KT 100V170 CAVOK 23/17 Q1008 TEMPO VRB20G30KT 4000 SHRA BKN040CB
19:00
V
22 °C 10 km+ 14.000 ft 230° 230° 3 kt METAR LFOE 161700Z AUTO 23003KT 200V270 9999 FEW039 BKN140 OVC170 22/17 Q1008 TEMPO VRB20G30KT 2000 TSRAGS BKN040CB
18:30
V
22 °C 10 km+ - 210° 210° 10 kt METAR LFOE 161630Z AUTO 21010KT 9999 -RA //////CB 22/18 Q1008 TEMPO VRB20G30KT 2000 TSRAGS
18:00
V
24 °C 10 km+ 12.000 ft 180° 180° 9 kt METAR LFOE 161600Z AUTO 18009KT 9999 VCTS SCT046/// SCT096/// BKN120/// //////CB 24/15 Q1009 TEMPO VRB20G30KT 2000 TSRAGS
17:30
V
25 °C 10 km+ 4.500 ft 170° 170° 10 kt METAR LFOE 161530Z AUTO 17010KT 140V200 9999 BKN045/// BKN110/// BKN130/// ///CB 25/14 Q1009 TEMPO VRB20G30KT 2000 TSRAGS
17:00
V
25 °C 10 km+ - 170° 170° 7 kt METAR LFOE 161500Z AUTO 17007KT CAVOK 25/15 Q1009 TEMPO VRB20G30KT 2000 TSRAGS BKN040CB
16:30
V
25 °C 10 km+ - 160° 160° 7 kt METAR LFOE 161430Z AUTO 16007KT 090V200 CAVOK 25/15 Q1009 TEMPO VRB20G30KT 4000 SHRA BKN040CB
16:00
V
24 °C 10 km+ 16.000 ft 140° 140° 7 kt METAR LFOE 161400Z AUTO 14007KT 100V170 9999 FEW039 BKN160 BKN180 24/16 Q1009 TEMPO VRB20G30KT 4000 SHRA BKN040CB
15:30
V
23 °C 10 km+ 12.000 ft 130° 130° 7 kt METAR LFOE 161330Z AUTO 13007KT 100V160 9999 FEW039 BKN120 BKN140 23/15 Q1009 TEMPO VRB20G30KT 4000 SHRA BKN040CB
15:00
V
24 °C 10 km+ - 160° 160° 6 kt METAR LFOE 161300Z AUTO 16006KT 120V220 CAVOK 24/15 Q1009 TEMPO VRB20G30KT 4000 SHRA BKN040CB
14:30
V
24 °C 10 km+ 11.000 ft 180° 180° 6 kt METAR LFOE 161230Z AUTO 18006KT 120V210 9999 FEW028 BKN110 BKN160 24/15 Q1009 TEMPO VRB20G30KT 4000 SHRA BKN040CB
14:00
V
23 °C 10 km+ 5.600 ft 180° 180° 5 kt METAR LFOE 161200Z AUTO 18005KT 150V250 9999 FEW035 BKN056 BKN068 23/15 Q1009 TEMPO 4000 SHRA BKN040CB
13:30
V
24 °C 10 km+ 6.600 ft 220° 220° 9 kt METAR LFOE 161130Z AUTO 22009KT 170V280 9999 FEW036 SCT054 BKN066 24/15 Q1009 TEMPO 4000 SHRA BKN040CB
13:00
V
23 °C 10 km+ - 200° 200° 9 kt METAR LFOE 161100Z AUTO 20009KT 180V250 CAVOK 23/15 Q1009 TEMPO 4000 SHRA BKN040CB
12:30
V
23 °C 10 km+ 5.800 ft 200° 200° 10 kt METAR LFOE 161030Z AUTO 20010KT 9999 FEW033 BKN058 OVC068 23/15 Q1009 TEMPO 4000 SHRA BKN040CB
12:00
V
23 °C 10 km+ 5.400 ft 200° 200° 10 kt METAR LFOE 161000Z AUTO 20010KT 9999 FEW023 BKN054 BKN120 23/15 Q1009 TEMPO 4000 SHRA BKN040CB
11:30
V
23 °C 10 km+ - 210° 210° 12 kt METAR LFOE 160930Z AUTO 21012KT 180V240 CAVOK 23/15 Q1009 TEMPO 4000 SHRA BKN040CB
11:00
V
22 °C 10 km+ - 200° 200° 12 kt METAR LFOE 160900Z AUTO 20012KT CAVOK 22/15 Q1008 TEMPO 4000 SHRA BKN040CB
10:30
V
22 °C 10 km+ - 200° 200° 10 kt METAR LFOE 160830Z AUTO 20010KT CAVOK 22/15 Q1008 TEMPO 4000 SHRA BKN040CB
10:00
V
21 °C 10 km+ - 180° 180° 8 kt METAR LFOE 160800Z AUTO 18008KT CAVOK 21/16 Q1008 NOSIG
09:30
V
20 °C 10 km+ - 180° 180° 7 kt METAR LFOE 160730Z AUTO 18007KT CAVOK 20/15 Q1008 NOSIG
09:00
V
20 °C 10 km+ - 170° 170° 6 kt METAR LFOE 160700Z AUTO 17006KT CAVOK 20/15 Q1008 NOSIG
08:30
V
19 °C 10 km+ - 160° 160° 6 kt METAR LFOE 160630Z AUTO 16006KT CAVOK 19/15 Q1008 NOSIG
08:00
V
18 °C 10 km+ - 140° 140° 3 kt METAR LFOE 160600Z AUTO 14003KT CAVOK 18/15 Q1008 NOSIG
07:30
V
18 °C 10 km+ - Var Var 1 kt METAR LFOE 160530Z AUTO VRB01KT CAVOK 18/15 Q1007 NOSIG
07:00
V
18 °C 10 km+ - 160° 160° 3 kt METAR LFOE 160500Z AUTO 16003KT CAVOK 18/14 Q1007 NOSIG
06:30
V
18 °C 10 km+ - 180° 180° 5 kt METAR LFOE 160430Z AUTO 18005KT CAVOK 18/15 Q1007 NOSIG
06:00
V
18 °C 10 km+ - 180° 180° 4 kt METAR LFOE 160400Z AUTO 18004KT CAVOK 18/14 Q1007 NOSIG
05:30
V
18 °C 10 km+ - 160° 160° 4 kt METAR LFOE 160330Z AUTO 16004KT 060V200 CAVOK 18/14 Q1007 NOSIG
05:00
V
19 °C 10 km+ - 150° 150° 3 kt METAR LFOE 160300Z AUTO 15003KT CAVOK 19/15 Q1007 NOSIG
04:30
V
19 °C 10 km+ - 080° 080° 4 kt METAR LFOE 160230Z AUTO 08004KT CAVOK 19/15 Q1007 NOSIG
04:00
V
20 °C 10 km+ 10.000 ft 080° 080° 3 kt METAR LFOE 160200Z AUTO 08003KT 9999 SCT041 BKN100 OVC180 20/15 Q1007 NOSIG
03:30
V
19 °C 10 km+ 4.000 ft 190° 190° 3 kt METAR LFOE 160130Z AUTO 19003KT 9999 BKN040 BKN130 19/15 Q1008 NOSIG
03:00
V
19 °C 10 km+ - 190° 190° 3 kt METAR LFOE 160100Z AUTO 19003KT CAVOK 19/15 Q1008 NOSIG
02:30
V
20 °C 10 km+ - 170° 170° 4 kt METAR LFOE 160030Z AUTO 17004KT CAVOK 20/15 Q1008 NOSIG
02:00
V
20 °C 10 km+ - 060° 060° 1 kt METAR LFOE 160000Z AUTO 06001KT CAVOK 20/15 Q1008 NOSIG
01:30
V
20 °C 10 km+ - 020° 020° 3 kt METAR LFOE 152330Z AUTO 02003KT CAVOK 20/15 Q1008 NOSIG
01:00
V
21 °C 10 km+ - 020° 020° 3 kt METAR LFOE 152300Z AUTO 02003KT CAVOK 21/15 Q1008 NOSIG
00:30
V
21 °C 10 km+ - 310° 310° 3 kt METAR LFOE 152230Z AUTO 31003KT CAVOK 21/15 Q1008 NOSIG
00:00
V
22 °C 10 km+ - Var Var 3 kt METAR LFOE 152200Z AUTO VRB03KT CAVOK 22/15 Q1008 NOSIG

15 août 2022

Temps Code Temps Temp. Vue Base cloud Vent METAR/SPECI
23:30
V
22 °C 10 km+ - 250° 250° 3 kt METAR LFOE 152130Z AUTO 25003KT 210V290 CAVOK 22/15 Q1008 NOSIG
23:00
V
21 °C 10 km+ - Var Var 3 kt METAR LFOE 152100Z AUTO VRB03KT CAVOK 21/15 Q1007 NOSIG
22:30
V
22 °C 10 km+ - 240° 240° 4 kt METAR LFOE 152030Z AUTO 24004KT 200V280 CAVOK 22/15 Q1007 NOSIG
22:00
V
23 °C 10 km+ - 240° 240° 3 kt METAR LFOE 152000Z AUTO 24003KT 190V270 CAVOK 23/15 Q1007 TEMPO 4000 SHRA BKN060CB
21:30
V
23 °C 10 km+ - 240° 240° 5 kt METAR LFOE 151930Z AUTO 24005KT 190V280 CAVOK 23/15 Q1007 TEMPO 4000 SHRA BKN060CB
21:00
V
23 °C 10 km+ - 250° 250° 7 kt METAR LFOE 151900Z AUTO 25007KT 200V270 CAVOK 23/15 Q1006 TEMPO 25015G25KT 4000 SHRA BKN060CB
20:30
V
24 °C 10 km+ - 260° 260° 8 kt METAR LFOE 151830Z AUTO 26008KT CAVOK 24/15 Q1006 TEMPO 25015G25KT 4000 SHRA BKN060CB
20:00
V
24 °C 10 km+ - 250° 250° 8 kt METAR LFOE 151800Z AUTO 25008KT 200V270 CAVOK 24/14 Q1006 TEMPO 25015G25KT 2000 TSRA BKN060CB
19:30
V
25 °C 10 km+ - 260° 260° 9 kt METAR LFOE 151730Z AUTO 26009KT 220V280 CAVOK 25/14 Q1006 TEMPO 25015G25KT 2000 TSRA BKN060CB
19:00
V
26 °C 10 km+ - 230° 230° 9 kt METAR LFOE 151700Z AUTO 23009KT 210V280 CAVOK 26/13 Q1005 TEMPO 25015G25KT 2000 TSRA BKN060CB
18:30
V
26 °C 10 km+ - 250° 250° 9 kt METAR LFOE 151630Z AUTO 25009KT 210V290 CAVOK 26/14 Q1005 TEMPO 25015G25KT 2000 TSRA BKN060CB
18:00
V
26 °C 10 km+ - 240° 240° 9 kt METAR LFOE 151600Z AUTO 24009KT 210V280 9999 FEW045 26/15 Q1005 TEMPO 25015G25KT 2000 TSRA BKN060CB
17:30
V
27 °C 10 km+ - 240° 240° 8 kt METAR LFOE 151530Z AUTO 24008KT 200V280 9999 FEW045 SCT054 27/15 Q1005 TEMPO 25015G25KT 2000 TSRA BKN060CB
17:00
V
27 °C 10 km+ - 260° 260° 9 kt METAR LFOE 151500Z AUTO 26009KT 200V310 9999 FEW048 27/15 Q1005 TEMPO 25015G25KT 2000 TSRA BKN060CB
16:30
V
27 °C 10 km+ - 250° 250° 10 kt METAR LFOE 151430Z AUTO 25010KT 210V310 CAVOK 27/14 Q1005 TEMPO 25015G25KT 2000 TSRA BKN060CB
16:00
V
28 °C 10 km+ - 270° 270° 8 kt METAR LFOE 151400Z AUTO 27008KT 230V300 CAVOK 28/12 Q1005 TEMPO 2000 TSRA BKN050CB
15:30
V
26 °C 10 km+ - 240° 240° 7 kt METAR LFOE 151330Z AUTO 24007KT 190V290 CAVOK 26/13 Q1005 TEMPO 2000 TSRA BKN050CB
15:00
V
26 °C 10 km+ - 220° 220° 8 kt METAR LFOE 151300Z AUTO 22008KT 190V280 CAVOK 26/13 Q1005 TEMPO 2000 TSRA BKN050CB
14:30
V
27 °C 10 km+ - Var Var 3 kt METAR LFOE 151230Z AUTO VRB03KT CAVOK 27/13 Q1005 TEMPO 2000 TSRA BKN050CB
14:00
V
26 °C 10 km+ - Var Var 4 kt METAR LFOE 151200Z AUTO VRB04KT CAVOK 26/13 Q1005 TEMPO 4000 SHRA BKN050CB
13:30
V
26 °C 10 km+ - 250° 250° 6 kt METAR LFOE 151130Z AUTO 25006KT 190V310 9999 SCT046 SCT054 26/13 Q1005 TEMPO 4000 SHRA BKN050CB
13:00
V
26 °C 10 km+ - Var Var 4 kt METAR LFOE 151100Z AUTO VRB04KT 9999 FEW043 SCT050 26/13 Q1005 NOSIG
12:30
V
25 °C 10 km+ - 200° 200° 4 kt METAR LFOE 151030Z AUTO 20004KT 180V340 9999 SCT038 25/14 Q1005 NOSIG
12:00
V
24 °C 10 km+ - 230° 230° 4 kt METAR LFOE 151000Z AUTO 23004KT 170V290 9999 FEW035 24/15 Q1005 NOSIG
11:30
V
23 °C 10 km+ - 170° 170° 4 kt METAR LFOE 150930Z AUTO 17004KT 130V210 CAVOK 23/14 Q1005 NOSIG
11:00
V
22 °C 10 km+ - Var Var 3 kt METAR LFOE 150900Z AUTO VRB03KT 9999 FEW024 22/15 Q1005 TEMPO 4000 SHRA SCT030TCU
10:30
V
22 °C 10 km+ - 230° 230° 3 kt METAR LFOE 150830Z AUTO 23003KT 170V320 9999 FEW021 22/15 Q1005 TEMPO 4000 SHRA SCT030TCU
10:00
V
20 °C 10 km+ - 210° 210° 4 kt METAR LFOE 150800Z AUTO 21004KT 180V240 CAVOK 20/15 Q1005 TEMPO VRB15G25KT 3000 TSRA SCT050CB
09:30
V
19 °C 10 km+ - 190° 190° 3 kt METAR LFOE 150730Z AUTO 19003KT 160V260 CAVOK 19/15 Q1005 TEMPO VRB15G25KT 3000 TSRA SCT050CB
09:00
V
18 °C 10 km+ - Var Var 3 kt METAR LFOE 150700Z AUTO VRB03KT CAVOK 18/15 Q1005 NOSIG
08:30
V
16 °C 8 km - Var Var 3 kt METAR LFOE 150630Z AUTO VRB03KT 8000 NSC 16/15 Q1005 NOSIG
08:00
M
15 °C 6 km - 190° 190° 3 kt METAR LFOE 150600Z AUTO 19003KT 6000 NSC 15/14 Q1005 NOSIG
07:30
M
15 °C 6 km - 150° 150° 2 kt METAR LFOE 150530Z AUTO 15002KT 6000 FEW008 15/14 Q1005 NOSIG
07:00
M
15 °C 6 km - Var 000° 0 kt METAR LFOE 150500Z AUTO 00000KT 6000 NSC 15/14 Q1005 NOSIG
06:30
M
15 °C 7 km - 160° 160° 4 kt METAR LFOE 150430Z AUTO 16004KT 7000 NSC 15/15 Q1005 NOSIG
06:00
M
15 °C 7 km - 170° 170° 4 kt METAR LFOE 150400Z AUTO 17004KT 7000 NSC 15/14 Q1005 NOSIG
05:30
M
16 °C 7 km - 140° 140° 3 kt METAR LFOE 150330Z AUTO 14003KT 7000 NSC 16/15 Q1005 NOSIG
05:00
V
16 °C 9 km - 100° 100° 2 kt METAR LFOE 150300Z AUTO 10002KT 9000 NSC 16/15 Q1005 NOSIG
04:30
V
16 °C 9 km - Var 000° 0 kt METAR LFOE 150230Z AUTO 00000KT 9000 NSC 16/15 Q1005 NOSIG
04:00
V
16 °C 10 km+ - 220° 220° 3 kt METAR LFOE 150200Z AUTO 22003KT CAVOK 16/15 Q1006 NOSIG
03:30
V
17 °C 10 km+ - 190° 190° 6 kt METAR LFOE 150130Z AUTO 19006KT CAVOK 17/15 Q1006 NOSIG
03:00
V
17 °C 10 km+ - 210° 210° 5 kt METAR LFOE 150100Z AUTO 21005KT CAVOK 17/16 Q1006 NOSIG
02:30
V
17 °C 10 km+ - 220° 220° 5 kt METAR LFOE 150030Z AUTO 22005KT CAVOK 17/16 Q1006 NOSIG
02:00
V
18 °C 10 km+ - 220° 220° 5 kt METAR LFOE 150000Z AUTO 22005KT CAVOK 18/16 Q1006 NOSIG
01:30
V
19 °C 10 km+ - 210° 210° 6 kt METAR LFOE 142330Z AUTO 21006KT CAVOK 19/16 Q1006 NOSIG
01:00
V
19 °C 10 km+ - 200° 200° 6 kt METAR LFOE 142300Z AUTO 20006KT CAVOK 19/16 Q1006 NOSIG
00:30
V
20 °C 10 km+ - 210° 210° 5 kt METAR LFOE 142230Z AUTO 21005KT CAVOK 20/17 Q1006 NOSIG
00:00
V
20 °C 9 km - 200° 200° 6 kt METAR LFOE 142200Z AUTO 20006KT 9000 NSC 20/16 Q1007 NOSIG

14 août 2022

Temps Code Temps Temp. Vue Base cloud Vent METAR/SPECI
23:30
V
20 °C 10 km+ - 210° 210° 4 kt METAR LFOE 142130Z AUTO 21004KT CAVOK 20/16 Q1007 NOSIG
23:00
V
21 °C 10 km+ - 220° 220° 4 kt METAR LFOE 142100Z AUTO 22004KT 9999 //////CB 21/16 Q1007 BECMG NSC
22:30
V
21 °C 10 km+ - 220° 220° 3 kt METAR LFOE 142030Z AUTO 22003KT 9999 //////CB 21/16 Q1007 BECMG NSC
22:00
V
21 °C 10 km+ - 220° 220° 6 kt METAR LFOE 142000Z AUTO 22006KT 9999 ///TCU 21/16 Q1007 TEMPO 4000 SHRA SCT030CB
21:30
V
22 °C 10 km+ - 220° 220° 4 kt METAR LFOE 141930Z AUTO 22004KT CAVOK 22/16 Q1007 TEMPO 4000 SHRA SCT030TCU
Données plus anciennes

Nous et des tiers suivons ton comportement sur Internet sur notre site Web à l'aide de cookies. Si tu continues, nous supposons que tu acceptes notre politique en matière de cookies. Apprendre plus